sensor_id;sensor_type;location;lat;lon;timestamp;temperature;humidity
7445;DHT22;3764;48.126;11.594;2023-01-19T00:00:17;0.70;99.90
7445;DHT22;3764;48.126;11.594;2023-01-19T00:02:44;0.70;99.90
7445;DHT22;3764;48.126;11.594;2023-01-19T00:05:13;0.70;99.90
7445;DHT22;3764;48.126;11.594;2023-01-19T00:07:41;0.70;99.90
7445;DHT22;3764;48.126;11.594;2023-01-19T00:10:09;0.70;99.90
7445;DHT22;3764;48.126;11.594;2023-01-19T00:12:37;0.70;99.90
7445;DHT22;3764;48.126;11.594;2023-01-19T00:15:05;0.70;99.90
7445;DHT22;3764;48.126;11.594;2023-01-19T00:17:32;0.70;99.90
7445;DHT22;3764;48.126;11.594;2023-01-19T00:19:59;0.70;99.90
7445;DHT22;3764;48.126;11.594;2023-01-19T00:22:26;0.70;99.90
7445;DHT22;3764;48.126;11.594;2023-01-19T00:24:53;0.60;99.90
7445;DHT22;3764;48.126;11.594;2023-01-19T00:27:21;0.70;99.90
7445;DHT22;3764;48.126;11.594;2023-01-19T00:29:49;0.70;99.90
7445;DHT22;3764;48.126;11.594;2023-01-19T00:32:16;0.70;99.90
7445;DHT22;3764;48.126;11.594;2023-01-19T00:34:45;0.70;99.90
7445;DHT22;3764;48.126;11.594;2023-01-19T00:37:14;0.70;99.90
7445;DHT22;3764;48.126;11.594;2023-01-19T00:39:41;0.70;99.90
7445;DHT22;3764;48.126;11.594;2023-01-19T00:42:10;0.70;99.90
7445;DHT22;3764;48.126;11.594;2023-01-19T00:44:57;0.70;99.90
7445;DHT22;3764;48.126;11.594;2023-01-19T00:47:24;0.70;99.90
7445;DHT22;3764;48.126;11.594;2023-01-19T00:49:51;0.70;99.90
7445;DHT22;3764;48.126;11.594;2023-01-19T00:52:18;0.70;99.90
7445;DHT22;3764;48.126;11.594;2023-01-19T00:54:45;0.60;99.90
7445;DHT22;3764;48.126;11.594;2023-01-19T00:57:13;0.60;99.90
7445;DHT22;3764;48.126;11.594;2023-01-19T00:59:40;0.70;99.90
7445;DHT22;3764;48.126;11.594;2023-01-19T01:02:09;0.70;99.90
7445;DHT22;3764;48.126;11.594;2023-01-19T01:04:37;0.70;99.90
7445;DHT22;3764;48.126;11.594;2023-01-19T01:07:04;0.70;99.90
7445;DHT22;3764;48.126;11.594;2023-01-19T01:09:31;0.70;99.90
7445;DHT22;3764;48.126;11.594;2023-01-19T01:12:00;0.80;99.90
7445;DHT22;3764;48.126;11.594;2023-01-19T01:14:27;0.70;99.90
7445;DHT22;3764;48.126;11.594;2023-01-19T01:16:54;0.70;99.90
7445;DHT22;3764;48.126;11.594;2023-01-19T01:19:23;0.60;99.90
7445;DHT22;3764;48.126;11.594;2023-01-19T01:21:50;0.60;99.90
7445;DHT22;3764;48.126;11.594;2023-01-19T01:24:17;0.60;99.90
7445;DHT22;3764;48.126;11.594;2023-01-19T01:26:45;0.60;99.90
7445;DHT22;3764;48.126;11.594;2023-01-19T01:29:12;0.60;99.90
7445;DHT22;3764;48.126;11.594;2023-01-19T01:31:39;0.60;99.90
7445;DHT22;3764;48.126;11.594;2023-01-19T01:34:06;0.60;99.90
7445;DHT22;3764;48.126;11.594;2023-01-19T01:36:35;0.60;99.90
7445;DHT22;3764;48.126;11.594;2023-01-19T01:39:02;0.60;99.90
7445;DHT22;3764;48.126;11.594;2023-01-19T01:41:30;0.60;99.90
7445;DHT22;3764;48.126;11.594;2023-01-19T01:43:58;0.60;99.90
7445;DHT22;3764;48.126;11.594;2023-01-19T01:46:29;0.60;99.90
7445;DHT22;3764;48.126;11.594;2023-01-19T01:49:01;0.60;99.90
7445;DHT22;3764;48.126;11.594;2023-01-19T01:51:32;0.60;99.90
7445;DHT22;3764;48.126;11.594;2023-01-19T01:54:07;0.50;99.90
7445;DHT22;3764;48.126;11.594;2023-01-19T01:56:38;0.50;99.90
7445;DHT22;3764;48.126;11.594;2023-01-19T01:59:08;0.50;99.90
7445;DHT22;3764;48.126;11.594;2023-01-19T02:01:39;0.50;99.90
7445;DHT22;3764;48.126;11.594;2023-01-19T02:04:24;0.50;99.90
7445;DHT22;3764;48.126;11.594;2023-01-19T02:06:51;0.50;99.90
7445;DHT22;3764;48.126;11.594;2023-01-19T02:09:37;0.50;99.90
7445;DHT22;3764;48.126;11.594;2023-01-19T02:12:21;0.50;99.90
7445;DHT22;3764;48.126;11.594;2023-01-19T02:15:14;0.40;99.90
7445;DHT22;3764;48.126;11.594;2023-01-19T02:17:41;0.40;99.90
7445;DHT22;3764;48.126;11.594;2023-01-19T02:20:09;0.40;99.90
7445;DHT22;3764;48.126;11.594;2023-01-19T02:22:44;0.40;99.90
7445;DHT22;3764;48.126;11.594;2023-01-19T02:25:14;0.40;99.90
7445;DHT22;3764;48.126;11.594;2023-01-19T02:27:42;0.30;99.90
7445;DHT22;3764;48.126;11.594;2023-01-19T02:30:10;0.40;99.90
7445;DHT22;3764;48.126;11.594;2023-01-19T02:32:38;0.30;99.90
7445;DHT22;3764;48.126;11.594;2023-01-19T02:35:06;0.40;99.90
7445;DHT22;3764;48.126;11.594;2023-01-19T02:37:35;0.30;99.90
7445;DHT22;3764;48.126;11.594;2023-01-19T02:40:07;0.30;99.90
7445;DHT22;3764;48.126;11.594;2023-01-19T02:42:41;0.30;99.90
7445;DHT22;3764;48.126;11.594;2023-01-19T02:45:11;0.20;99.90
7445;DHT22;3764;48.126;11.594;2023-01-19T02:47:42;0.30;99.90
7445;DHT22;3764;48.126;11.594;2023-01-19T02:50:38;0.20;99.90
7445;DHT22;3764;48.126;11.594;2023-01-19T02:53:45;0.20;99.90
7445;DHT22;3764;48.126;11.594;2023-01-19T02:56:35;0.20;99.90
7445;DHT22;3764;48.126;11.594;2023-01-19T02:59:13;0.20;99.90
7445;DHT22;3764;48.126;11.594;2023-01-19T03:01:55;0.20;99.90
7445;DHT22;3764;48.126;11.594;2023-01-19T03:04:30;0.20;99.90
7445;DHT22;3764;48.126;11.594;2023-01-19T03:07:06;0.20;99.90
7445;DHT22;3764;48.126;11.594;2023-01-19T03:09:40;0.20;99.90
7445;DHT22;3764;48.126;11.594;2023-01-19T03:12:13;0.20;99.90
7445;DHT22;3764;48.126;11.594;2023-01-19T03:14:45;0.10;99.90
7445;DHT22;3764;48.126;11.594;2023-01-19T03:17:16;0.10;99.90
7445;DHT22;3764;48.126;11.594;2023-01-19T03:19:47;0.10;99.90
7445;DHT22;3764;48.126;11.594;2023-01-19T03:22:18;0.10;99.90
7445;DHT22;3764;48.126;11.594;2023-01-19T03:24:47;0.10;99.90
7445;DHT22;3764;48.126;11.594;2023-01-19T03:27:20;0.00;99.90
7445;DHT22;3764;48.126;11.594;2023-01-19T03:29:53;0.10;99.90
7445;DHT22;3764;48.126;11.594;2023-01-19T03:32:24;0.10;99.90
7445;DHT22;3764;48.126;11.594;2023-01-19T03:34:55;0.10;99.90
7445;DHT22;3764;48.126;11.594;2023-01-19T03:37:23;0.10;99.90
7445;DHT22;3764;48.126;11.594;2023-01-19T03:39:51;0.10;99.90
7445;DHT22;3764;48.126;11.594;2023-01-19T03:42:19;0.10;99.90
7445;DHT22;3764;48.126;11.594;2023-01-19T03:44:47;0.10;99.90
7445;DHT22;3764;48.126;11.594;2023-01-19T03:47:18;0.10;99.90
7445;DHT22;3764;48.126;11.594;2023-01-19T03:49:46;0.10;99.90
7445;DHT22;3764;48.126;11.594;2023-01-19T03:52:14;0.10;99.90
7445;DHT22;3764;48.126;11.594;2023-01-19T03:54:41;0.00;99.90
7445;DHT22;3764;48.126;11.594;2023-01-19T03:57:08;0.00;99.90
7445;DHT22;3764;48.126;11.594;2023-01-19T03:59:37;0.00;99.90
7445;DHT22;3764;48.126;11.594;2023-01-19T04:02:04;0.00;99.90
7445;DHT22;3764;48.126;11.594;2023-01-19T04:04:33;-0.10;99.90
7445;DHT22;3764;48.126;11.594;2023-01-19T04:07:00;0.00;99.90
7445;DHT22;3764;48.126;11.594;2023-01-19T04:09:27;-0.10;99.90
7445;DHT22;3764;48.126;11.594;2023-01-19T04:11:54;-0.10;99.90
7445;DHT22;3764;48.126;11.594;2023-01-19T04:14:22;-0.10;99.90
7445;DHT22;3764;48.126;11.594;2023-01-19T04:16:49;-0.10;99.90
7445;DHT22;3764;48.126;11.594;2023-01-19T04:19:16;-0.10;99.90
7445;DHT22;3764;48.126;11.594;2023-01-19T04:21:47;-0.10;99.90
7445;DHT22;3764;48.126;11.594;2023-01-19T04:24:14;0.00;99.90
7445;DHT22;3764;48.126;11.594;2023-01-19T04:26:41;0.00;99.90
7445;DHT22;3764;48.126;11.594;2023-01-19T04:29:08;-0.10;99.90
7445;DHT22;3764;48.126;11.594;2023-01-19T04:31:35;-0.10;99.90
7445;DHT22;3764;48.126;11.594;2023-01-19T04:34:03;0.00;99.90
7445;DHT22;3764;48.126;11.594;2023-01-19T04:36:30;-0.10;99.90
7445;DHT22;3764;48.126;11.594;2023-01-19T04:38:58;-0.10;99.90
7445;DHT22;3764;48.126;11.594;2023-01-19T04:41:25;-0.10;99.90
7445;DHT22;3764;48.126;11.594;2023-01-19T04:43:52;-0.10;99.90
7445;DHT22;3764;48.126;11.594;2023-01-19T04:46:19;-0.10;99.90
7445;DHT22;3764;48.126;11.594;2023-01-19T04:48:46;-0.10;99.90
7445;DHT22;3764;48.126;11.594;2023-01-19T04:51:14;-0.10;99.90
7445;DHT22;3764;48.126;11.594;2023-01-19T04:53:41;-0.20;99.90
7445;DHT22;3764;48.126;11.594;2023-01-19T04:56:09;-0.20;99.90
7445;DHT22;3764;48.126;11.594;2023-01-19T04:58:37;-0.20;99.90
7445;DHT22;3764;48.126;11.594;2023-01-19T05:01:06;-0.20;99.90
7445;DHT22;3764;48.126;11.594;2023-01-19T05:03:34;-0.20;99.90
7445;DHT22;3764;48.126;11.594;2023-01-19T05:06:01;-0.20;99.90
7445;DHT22;3764;48.126;11.594;2023-01-19T05:08:28;-0.20;99.90
7445;DHT22;3764;48.126;11.594;2023-01-19T05:10:55;-0.20;99.90
7445;DHT22;3764;48.126;11.594;2023-01-19T05:13:24;-0.20;99.90
7445;DHT22;3764;48.126;11.594;2023-01-19T05:15:51;-0.10;99.90
7445;DHT22;3764;48.126;11.594;2023-01-19T05:18:18;-0.10;99.90
7445;DHT22;3764;48.126;11.594;2023-01-19T05:20:45;-0.20;99.90
7445;DHT22;3764;48.126;11.594;2023-01-19T05:23:12;-0.20;99.90
7445;DHT22;3764;48.126;11.594;2023-01-19T05:25:40;-0.30;99.90
7445;DHT22;3764;48.126;11.594;2023-01-19T05:28:08;-0.30;99.90
7445;DHT22;3764;48.126;11.594;2023-01-19T05:30:36;-0.30;99.90
7445;DHT22;3764;48.126;11.594;2023-01-19T05:33:03;-0.30;99.90
7445;DHT22;3764;48.126;11.594;2023-01-19T05:35:30;-0.30;99.90
7445;DHT22;3764;48.126;11.594;2023-01-19T05:37:57;-0.30;99.90
7445;DHT22;3764;48.126;11.594;2023-01-19T05:40:25;-0.30;99.90
7445;DHT22;3764;48.126;11.594;2023-01-19T05:42:53;-0.30;99.90
7445;DHT22;3764;48.126;11.594;2023-01-19T05:45:20;-0.40;99.90
7445;DHT22;3764;48.126;11.594;2023-01-19T05:47:48;-0.40;99.90
7445;DHT22;3764;48.126;11.594;2023-01-19T05:50:15;-0.40;99.90
7445;DHT22;3764;48.126;11.594;2023-01-19T05:52:42;-0.40;99.90
7445;DHT22;3764;48.126;11.594;2023-01-19T05:55:09;-0.40;99.90
7445;DHT22;3764;48.126;11.594;2023-01-19T05:57:36;-0.30;99.90
7445;DHT22;3764;48.126;11.594;2023-01-19T06:00:04;-0.30;99.90
7445;DHT22;3764;48.126;11.594;2023-01-19T06:02:32;-0.30;99.90
7445;DHT22;3764;48.126;11.594;2023-01-19T06:05:00;-0.40;99.90
7445;DHT22;3764;48.126;11.594;2023-01-19T06:07:27;-0.50;99.90
7445;DHT22;3764;48.126;11.594;2023-01-19T06:09:56;-0.50;99.90
7445;DHT22;3764;48.126;11.594;2023-01-19T06:12:23;-0.50;99.90
7445;DHT22;3764;48.126;11.594;2023-01-19T06:14:50;-0.50;99.90
7445;DHT22;3764;48.126;11.594;2023-01-19T06:17:18;-0.50;99.90
7445;DHT22;3764;48.126;11.594;2023-01-19T06:19:45;-0.40;99.90
7445;DHT22;3764;48.126;11.594;2023-01-19T06:22:13;-0.40;99.90
7445;DHT22;3764;48.126;11.594;2023-01-19T06:24:40;-0.30;99.90
7445;DHT22;3764;48.126;11.594;2023-01-19T06:27:08;-0.30;99.90
7445;DHT22;3764;48.126;11.594;2023-01-19T06:29:35;-0.30;99.90
7445;DHT22;3764;48.126;11.594;2023-01-19T06:32:03;-0.30;99.90
7445;DHT22;3764;48.126;11.594;2023-01-19T06:34:30;-0.30;99.90
7445;DHT22;3764;48.126;11.594;2023-01-19T06:36:57;-0.30;99.90
7445;DHT22;3764;48.126;11.594;2023-01-19T06:39:26;-0.30;99.90
7445;DHT22;3764;48.126;11.594;2023-01-19T06:41:53;-0.30;99.90
7445;DHT22;3764;48.126;11.594;2023-01-19T06:44:20;-0.30;99.90
7445;DHT22;3764;48.126;11.594;2023-01-19T06:46:47;-0.30;99.90
7445;DHT22;3764;48.126;11.594;2023-01-19T06:49:14;-0.30;99.90
7445;DHT22;3764;48.126;11.594;2023-01-19T06:51:41;-0.30;99.90
7445;DHT22;3764;48.126;11.594;2023-01-19T06:54:08;-0.30;99.90
7445;DHT22;3764;48.126;11.594;2023-01-19T06:56:37;-0.30;99.90
7445;DHT22;3764;48.126;11.594;2023-01-19T06:59:04;-0.30;99.90
7445;DHT22;3764;48.126;11.594;2023-01-19T07:01:31;-0.30;99.90
7445;DHT22;3764;48.126;11.594;2023-01-19T07:03:58;-0.30;99.90
7445;DHT22;3764;48.126;11.594;2023-01-19T07:06:25;-0.30;99.90
7445;DHT22;3764;48.126;11.594;2023-01-19T07:08:53;-0.30;99.90
7445;DHT22;3764;48.126;11.594;2023-01-19T07:11:20;-0.30;99.90
7445;DHT22;3764;48.126;11.594;2023-01-19T07:13:53;-0.30;99.90
7445;DHT22;3764;48.126;11.594;2023-01-19T07:16:20;-0.30;99.90
7445;DHT22;3764;48.126;11.594;2023-01-19T07:18:47;-0.30;99.90
7445;DHT22;3764;48.126;11.594;2023-01-19T07:21:14;-0.30;99.90
7445;DHT22;3764;48.126;11.594;2023-01-19T07:23:42;-0.30;99.90
7445;DHT22;3764;48.126;11.594;2023-01-19T07:26:09;-0.40;99.90
7445;DHT22;3764;48.126;11.594;2023-01-19T07:28:39;-0.40;99.90
7445;DHT22;3764;48.126;11.594;2023-01-19T07:31:09;-0.40;99.90
7445;DHT22;3764;48.126;11.594;2023-01-19T07:33:36;-0.50;99.90
7445;DHT22;3764;48.126;11.594;2023-01-19T07:36:03;-0.50;99.90
7445;DHT22;3764;48.126;11.594;2023-01-19T07:38:30;-0.50;99.90
7445;DHT22;3764;48.126;11.594;2023-01-19T07:41:00;-0.50;99.90
7445;DHT22;3764;48.126;11.594;2023-01-19T07:43:27;-0.50;99.90
7445;DHT22;3764;48.126;11.594;2023-01-19T07:45:55;-0.40;99.90
7445;DHT22;3764;48.126;11.594;2023-01-19T07:48:24;-0.40;99.90
7445;DHT22;3764;48.126;11.594;2023-01-19T07:50:51;-0.40;99.90
7445;DHT22;3764;48.126;11.594;2023-01-19T07:53:18;-0.40;99.90
7445;DHT22;3764;48.126;11.594;2023-01-19T07:55:45;-0.40;99.90
7445;DHT22;3764;48.126;11.594;2023-01-19T07:58:12;-0.40;99.90
7445;DHT22;3764;48.126;11.594;2023-01-19T08:00:39;-0.40;99.90
7445;DHT22;3764;48.126;11.594;2023-01-19T08:03:07;-0.30;99.90
7445;DHT22;3764;48.126;11.594;2023-01-19T08:05:36;-0.30;99.90
7445;DHT22;3764;48.126;11.594;2023-01-19T08:08:03;-0.30;99.90
7445;DHT22;3764;48.126;11.594;2023-01-19T08:10:31;-0.30;99.90
7445;DHT22;3764;48.126;11.594;2023-01-19T08:12:59;-0.30;99.90
7445;DHT22;3764;48.126;11.594;2023-01-19T08:15:26;-0.30;99.90
7445;DHT22;3764;48.126;11.594;2023-01-19T08:17:54;-0.40;99.90
7445;DHT22;3764;48.126;11.594;2023-01-19T08:20:22;-0.40;99.90
7445;DHT22;3764;48.126;11.594;2023-01-19T08:22:50;-0.40;99.90
7445;DHT22;3764;48.126;11.594;2023-01-19T08:25:26;-0.30;99.90
7445;DHT22;3764;48.126;11.594;2023-01-19T08:27:57;-0.30;99.90
7445;DHT22;3764;48.126;11.594;2023-01-19T08:30:24;-0.30;99.90
7445;DHT22;3764;48.126;11.594;2023-01-19T08:32:52;-0.40;99.90
7445;DHT22;3764;48.126;11.594;2023-01-19T08:35:22;-0.40;99.90
7445;DHT22;3764;48.126;11.594;2023-01-19T08:37:50;-0.40;99.90
7445;DHT22;3764;48.126;11.594;2023-01-19T08:40:18;-0.40;99.90
7445;DHT22;3764;48.126;11.594;2023-01-19T08:42:45;-0.40;99.90
7445;DHT22;3764;48.126;11.594;2023-01-19T08:45:12;-0.30;99.90
7445;DHT22;3764;48.126;11.594;2023-01-19T08:47:39;-0.30;99.90
7445;DHT22;3764;48.126;11.594;2023-01-19T08:50:07;-0.30;99.90
7445;DHT22;3764;48.126;11.594;2023-01-19T08:52:35;-0.30;99.90
7445;DHT22;3764;48.126;11.594;2023-01-19T08:55:05;-0.30;99.90
7445;DHT22;3764;48.126;11.594;2023-01-19T08:57:32;-0.30;99.90
7445;DHT22;3764;48.126;11.594;2023-01-19T08:59:59;-0.30;99.90
7445;DHT22;3764;48.126;11.594;2023-01-19T09:02:26;-0.30;99.90
7445;DHT22;3764;48.126;11.594;2023-01-19T09:04:53;-0.30;99.90
7445;DHT22;3764;48.126;11.594;2023-01-19T09:07:20;-0.20;99.90
7445;DHT22;3764;48.126;11.594;2023-01-19T09:09:47;-0.20;99.90
7445;DHT22;3764;48.126;11.594;2023-01-19T09:12:16;-0.10;99.90
7445;DHT22;3764;48.126;11.594;2023-01-19T09:14:43;-0.10;99.90
7445;DHT22;3764;48.126;11.594;2023-01-19T09:17:10;-0.20;99.90
7445;DHT22;3764;48.126;11.594;2023-01-19T09:19:39;-0.10;99.90
7445;DHT22;3764;48.126;11.594;2023-01-19T09:22:06;-0.20;99.90
7445;DHT22;3764;48.126;11.594;2023-01-19T09:24:33;-0.20;99.90
7445;DHT22;3764;48.126;11.594;2023-01-19T09:27:01;-0.10;99.90
7445;DHT22;3764;48.126;11.594;2023-01-19T09:29:29;-0.10;99.90
7445;DHT22;3764;48.126;11.594;2023-01-19T09:31:57;-0.10;99.90
7445;DHT22;3764;48.126;11.594;2023-01-19T09:34:24;-0.10;99.90
7445;DHT22;3764;48.126;11.594;2023-01-19T09:36:51;-0.10;99.90
7445;DHT22;3764;48.126;11.594;2023-01-19T09:39:18;-0.10;99.90
7445;DHT22;3764;48.126;11.594;2023-01-19T09:41:50;0.00;99.90
7445;DHT22;3764;48.126;11.594;2023-01-19T09:44:28;0.00;99.90
7445;DHT22;3764;48.126;11.594;2023-01-19T09:46:59;0.00;99.90
7445;DHT22;3764;48.126;11.594;2023-01-19T09:49:32;0.00;99.90
7445;DHT22;3764;48.126;11.594;2023-01-19T09:51:59;-0.10;99.90
7445;DHT22;3764;48.126;11.594;2023-01-19T09:54:30;0.00;99.90
7445;DHT22;3764;48.126;11.594;2023-01-19T09:57:08;0.00;99.90
7445;DHT22;3764;48.126;11.594;2023-01-19T09:59:38;0.00;99.90
7445;DHT22;3764;48.126;11.594;2023-01-19T10:02:31;0.00;99.90
7445;DHT22;3764;48.126;11.594;2023-01-19T10:05:03;0.00;99.90
7445;DHT22;3764;48.126;11.594;2023-01-19T10:07:52;-0.10;99.90
7445;DHT22;3764;48.126;11.594;2023-01-19T10:10:24;0.00;99.90
7445;DHT22;3764;48.126;11.594;2023-01-19T10:13:00;0.00;99.90
7445;DHT22;3764;48.126;11.594;2023-01-19T10:15:44;0.00;99.90
7445;DHT22;3764;48.126;11.594;2023-01-19T10:18:16;0.00;99.90
7445;DHT22;3764;48.126;11.594;2023-01-19T10:20:48;0.10;99.90
7445;DHT22;3764;48.126;11.594;2023-01-19T10:23:34;0.10;99.90
7445;DHT22;3764;48.126;11.594;2023-01-19T10:26:12;0.10;99.90
7445;DHT22;3764;48.126;11.594;2023-01-19T10:28:40;0.10;99.90
7445;DHT22;3764;48.126;11.594;2023-01-19T10:31:09;0.20;99.90
7445;DHT22;3764;48.126;11.594;2023-01-19T10:33:37;0.20;99.90
7445;DHT22;3764;48.126;11.594;2023-01-19T10:36:09;0.30;99.90
7445;DHT22;3764;48.126;11.594;2023-01-19T10:38:41;0.30;99.90
7445;DHT22;3764;48.126;11.594;2023-01-19T10:41:13;0.30;99.90
7445;DHT22;3764;48.126;11.594;2023-01-19T10:43:45;0.40;99.90
7445;DHT22;3764;48.126;11.594;2023-01-19T10:46:20;0.40;99.90
7445;DHT22;3764;48.126;11.594;2023-01-19T10:48:49;0.40;99.90
7445;DHT22;3764;48.126;11.594;2023-01-19T10:51:17;0.40;99.90
7445;DHT22;3764;48.126;11.594;2023-01-19T10:53:56;0.50;99.90
7445;DHT22;3764;48.126;11.594;2023-01-19T10:56:26;0.60;99.90
7445;DHT22;3764;48.126;11.594;2023-01-19T10:58:53;0.60;99.90
7445;DHT22;3764;48.126;11.594;2023-01-19T11:01:23;0.60;99.90
7445;DHT22;3764;48.126;11.594;2023-01-19T11:03:51;0.70;99.90
7445;DHT22;3764;48.126;11.594;2023-01-19T11:06:27;0.80;99.90
7445;DHT22;3764;48.126;11.594;2023-01-19T11:09:10;0.80;99.90
7445;DHT22;3764;48.126;11.594;2023-01-19T11:11:43;0.90;99.90
7445;DHT22;3764;48.126;11.594;2023-01-19T11:14:12;1.00;99.90
7445;DHT22;3764;48.126;11.594;2023-01-19T11:16:46;1.00;99.90
7445;DHT22;3764;48.126;11.594;2023-01-19T11:19:20;1.00;99.90
7445;DHT22;3764;48.126;11.594;2023-01-19T11:21:50;1.00;99.90
7445;DHT22;3764;48.126;11.594;2023-01-19T11:24:18;1.10;99.90
7445;DHT22;3764;48.126;11.594;2023-01-19T11:26:47;1.10;99.90
7445;DHT22;3764;48.126;11.594;2023-01-19T11:29:18;1.20;99.90
7445;DHT22;3764;48.126;11.594;2023-01-19T11:31:48;1.20;99.90
7445;DHT22;3764;48.126;11.594;2023-01-19T11:34:25;1.20;99.90
7445;DHT22;3764;48.126;11.594;2023-01-19T11:36:58;1.30;99.90
7445;DHT22;3764;48.126;11.594;2023-01-19T11:39:27;1.30;99.90
7445;DHT22;3764;48.126;11.594;2023-01-19T11:41:56;1.20;99.90
7445;DHT22;3764;48.126;11.594;2023-01-19T11:44:28;1.10;99.90
7445;DHT22;3764;48.126;11.594;2023-01-19T11:46:59;1.10;99.90
7445;DHT22;3764;48.126;11.594;2023-01-19T11:49:35;1.20;99.90
7445;DHT22;3764;48.126;11.594;2023-01-19T11:52:05;1.20;99.90
7445;DHT22;3764;48.126;11.594;2023-01-19T11:54:40;1.20;99.90
7445;DHT22;3764;48.126;11.594;2023-01-19T11:57:14;1.30;99.90
7445;DHT22;3764;48.126;11.594;2023-01-19T11:59:42;1.30;99.90
7445;DHT22;3764;48.126;11.594;2023-01-19T12:02:21;1.40;99.90
7445;DHT22;3764;48.126;11.594;2023-01-19T12:04:53;1.40;99.90
7445;DHT22;3764;48.126;11.594;2023-01-19T12:07:27;1.40;99.90
7445;DHT22;3764;48.126;11.594;2023-01-19T12:10:01;1.40;99.90
7445;DHT22;3764;48.126;11.594;2023-01-19T12:12:33;1.40;99.90
7445;DHT22;3764;48.126;11.594;2023-01-19T12:15:09;1.30;99.90
7445;DHT22;3764;48.126;11.594;2023-01-19T12:17:47;1.20;99.90
7445;DHT22;3764;48.126;11.594;2023-01-19T12:20:24;1.20;99.90
7445;DHT22;3764;48.126;11.594;2023-01-19T12:23:00;1.20;99.90
7445;DHT22;3764;48.126;11.594;2023-01-19T12:25:42;1.20;99.90
7445;DHT22;3764;48.126;11.594;2023-01-19T12:28:13;1.20;99.90
7445;DHT22;3764;48.126;11.594;2023-01-19T12:30:47;1.10;99.90
7445;DHT22;3764;48.126;11.594;2023-01-19T12:33:23;1.10;99.90
7445;DHT22;3764;48.126;11.594;2023-01-19T12:36:00;1.10;99.90
7445;DHT22;3764;48.126;11.594;2023-01-19T12:38:38;1.10;99.90
7445;DHT22;3764;48.126;11.594;2023-01-19T12:41:25;1.10;99.90
7445;DHT22;3764;48.126;11.594;2023-01-19T12:44:21;1.20;99.90
7445;DHT22;3764;48.126;11.594;2023-01-19T12:46:55;1.20;99.90
7445;DHT22;3764;48.126;11.594;2023-01-19T12:49:31;1.20;99.90
7445;DHT22;3764;48.126;11.594;2023-01-19T12:55:02;1.40;99.90
7445;DHT22;3764;48.126;11.594;2023-01-19T12:57:34;1.40;99.90
7445;DHT22;3764;48.126;11.594;2023-01-19T13:00:07;1.40;99.90
7445;DHT22;3764;48.126;11.594;2023-01-19T13:02:51;1.30;99.90
7445;DHT22;3764;48.126;11.594;2023-01-19T13:05:24;1.20;99.90
7445;DHT22;3764;48.126;11.594;2023-01-19T13:08:16;1.20;99.90
7445;DHT22;3764;48.126;11.594;2023-01-19T13:11:12;1.20;99.90
7445;DHT22;3764;48.126;11.594;2023-01-19T13:13:41;1.30;99.90
7445;DHT22;3764;48.126;11.594;2023-01-19T13:16:49;1.20;99.90
7445;DHT22;3764;48.126;11.594;2023-01-19T13:19:21;1.30;99.90
7445;DHT22;3764;48.126;11.594;2023-01-19T13:21:55;1.30;99.90
7445;DHT22;3764;48.126;11.594;2023-01-19T13:24:23;1.30;99.90
7445;DHT22;3764;48.126;11.594;2023-01-19T13:26:55;1.40;99.90
7445;DHT22;3764;48.126;11.594;2023-01-19T13:29:30;1.30;99.90
7445;DHT22;3764;48.126;11.594;2023-01-19T13:32:01;1.30;99.90
7445;DHT22;3764;48.126;11.594;2023-01-19T13:34:29;1.30;99.90
7445;DHT22;3764;48.126;11.594;2023-01-19T13:36:59;1.30;99.90
7445;DHT22;3764;48.126;11.594;2023-01-19T13:39:29;1.30;99.90
7445;DHT22;3764;48.126;11.594;2023-01-19T13:42:01;1.40;99.90
7445;DHT22;3764;48.126;11.594;2023-01-19T13:44:31;1.40;99.90
7445;DHT22;3764;48.126;11.594;2023-01-19T13:47:02;1.40;99.90
7445;DHT22;3764;48.126;11.594;2023-01-19T13:49:32;1.40;99.90
7445;DHT22;3764;48.126;11.594;2023-01-19T13:52:13;1.40;99.90
7445;DHT22;3764;48.126;11.594;2023-01-19T13:54:48;1.40;99.90
7445;DHT22;3764;48.126;11.594;2023-01-19T13:57:22;1.30;99.90
7445;DHT22;3764;48.126;11.594;2023-01-19T14:00:04;1.40;99.90
7445;DHT22;3764;48.126;11.594;2023-01-19T14:02:31;1.40;99.90
7445;DHT22;3764;48.126;11.594;2023-01-19T14:05:12;1.40;99.90
7445;DHT22;3764;48.126;11.594;2023-01-19T14:07:40;1.40;99.90
7445;DHT22;3764;48.126;11.594;2023-01-19T14:10:12;1.40;99.90
7445;DHT22;3764;48.126;11.594;2023-01-19T14:12:41;1.40;99.90
7445;DHT22;3764;48.126;11.594;2023-01-19T14:15:10;1.50;99.90
7445;DHT22;3764;48.126;11.594;2023-01-19T14:17:39;1.50;99.90
7445;DHT22;3764;48.126;11.594;2023-01-19T14:20:28;1.50;99.90
7445;DHT22;3764;48.126;11.594;2023-01-19T14:22:56;1.50;99.90
7445;DHT22;3764;48.126;11.594;2023-01-19T14:25:28;1.50;99.90
7445;DHT22;3764;48.126;11.594;2023-01-19T14:28:32;1.50;99.90
7445;DHT22;3764;48.126;11.594;2023-01-19T14:31:18;1.60;99.90
7445;DHT22;3764;48.126;11.594;2023-01-19T14:33:47;1.60;99.90
7445;DHT22;3764;48.126;11.594;2023-01-19T14:36:27;1.60;99.90
7445;DHT22;3764;48.126;11.594;2023-01-19T14:38:58;1.60;99.90
7445;DHT22;3764;48.126;11.594;2023-01-19T14:41:29;1.60;99.90
7445;DHT22;3764;48.126;11.594;2023-01-19T14:43:59;1.60;99.90
7445;DHT22;3764;48.126;11.594;2023-01-19T14:46:28;1.60;99.90
7445;DHT22;3764;48.126;11.594;2023-01-19T14:49:02;1.60;99.90
7445;DHT22;3764;48.126;11.594;2023-01-19T14:51:30;1.50;99.90
7445;DHT22;3764;48.126;11.594;2023-01-19T14:54:00;1.50;99.90
7445;DHT22;3764;48.126;11.594;2023-01-19T14:56:30;1.50;99.90
7445;DHT22;3764;48.126;11.594;2023-01-19T14:58:59;1.50;99.90
7445;DHT22;3764;48.126;11.594;2023-01-19T15:01:27;1.50;99.90
7445;DHT22;3764;48.126;11.594;2023-01-19T15:03:55;1.50;99.90
7445;DHT22;3764;48.126;11.594;2023-01-19T15:06:23;1.50;99.90
7445;DHT22;3764;48.126;11.594;2023-01-19T15:08:51;1.50;99.90
7445;DHT22;3764;48.126;11.594;2023-01-19T15:11:23;1.50;99.90
7445;DHT22;3764;48.126;11.594;2023-01-19T15:13:51;1.50;99.90
7445;DHT22;3764;48.126;11.594;2023-01-19T15:16:20;1.50;99.90
7445;DHT22;3764;48.126;11.594;2023-01-19T15:18:47;1.50;99.90
7445;DHT22;3764;48.126;11.594;2023-01-19T15:21:15;1.50;99.90
7445;DHT22;3764;48.126;11.594;2023-01-19T15:23:44;1.50;99.90
7445;DHT22;3764;48.126;11.594;2023-01-19T15:26:15;1.40;99.90
7445;DHT22;3764;48.126;11.594;2023-01-19T15:28:45;1.50;99.90
7445;DHT22;3764;48.126;11.594;2023-01-19T15:31:14;1.40;99.90
7445;DHT22;3764;48.126;11.594;2023-01-19T15:33:42;1.40;99.90
7445;DHT22;3764;48.126;11.594;2023-01-19T15:36:13;1.40;99.90
7445;DHT22;3764;48.126;11.594;2023-01-19T15:38:40;1.40;99.90
7445;DHT22;3764;48.126;11.594;2023-01-19T15:41:12;1.40;99.90
7445;DHT22;3764;48.126;11.594;2023-01-19T15:43:39;1.40;99.90
7445;DHT22;3764;48.126;11.594;2023-01-19T15:46:08;1.40;99.90
7445;DHT22;3764;48.126;11.594;2023-01-19T15:48:37;1.40;99.90
7445;DHT22;3764;48.126;11.594;2023-01-19T15:51:05;1.40;99.90
7445;DHT22;3764;48.126;11.594;2023-01-19T15:53:32;1.40;99.90
7445;DHT22;3764;48.126;11.594;2023-01-19T15:55:59;1.40;99.90
7445;DHT22;3764;48.126;11.594;2023-01-19T15:58:26;1.40;99.90
7445;DHT22;3764;48.126;11.594;2023-01-19T16:00:54;1.40;99.90
7445;DHT22;3764;48.126;11.594;2023-01-19T16:03:23;1.30;99.90
7445;DHT22;3764;48.126;11.594;2023-01-19T16:05:50;1.30;99.90
7445;DHT22;3764;48.126;11.594;2023-01-19T16:08:19;1.40;99.90
7445;DHT22;3764;48.126;11.594;2023-01-19T16:10:47;1.40;99.90
7445;DHT22;3764;48.126;11.594;2023-01-19T16:13:14;1.40;99.90
7445;DHT22;3764;48.126;11.594;2023-01-19T16:15:41;1.30;99.90
7445;DHT22;3764;48.126;11.594;2023-01-19T16:18:08;1.30;99.90
7445;DHT22;3764;48.126;11.594;2023-01-19T16:20:37;1.30;99.90